Aeroporto :
LOGIN :

Iscrizione | Disclaimer

   EN    FR    IT 

 










Sommario :    VFR   VFR Marginale   IFR   IFR Intensivo   IFR Molto Intensivo
Visibilità : 
Base nubi : 
>= 8 km
>= 3000ft
5 / 8 km
1000 / 3000 ft
1500m / 5 km
500 / 1000 ft
800 / 1500m
200 / 500 ft
< 800m
< 200 ft
Simboli :   Temporali  Nebbia  Neve Forte  Precipitazioni Forti  Vento > 20 kt
SIGMETs :   Varie  Temporali  Ghiacco  Turbolenza  Onda orograficha  Ceneri Vulcaniche






- Altitudine del aeroporto : 529 ft
- Codice IATA : CHR


LFLX - Chateauroux

ULTIMO METAR :
  • 111600Z AUTO 25009KT 9999 BKN012 BKN160 BKN190 14/13 Q1012 TEMPO 3000 SHRA BKN012TCU

METARs OBSOLETI :
  • 111530Z AUTO 22014KT 9999 SCT010 BKN016 BKN084 14/13 Q1011 TEMPO 3000 SHRA BKN012TCU
  • 111500Z AUTO 20013KT 9999 -RA FEW049 SCT060 BKN088 14/13 Q1010 TEMPO 3000 SHRA BKN012TCU
  • 111430Z AUTO 24012KT 9999 -RA FEW014 SCT042 BKN050 14/13 Q1013 TEMPO 3000 SHRA BKN012TCU
  • 111400Z AUTO 24011KT 9999 SCT012 BKN026 BKN031 14/13 Q1013 TEMPO 3000 SHRA BKN012TCU
  • 111330Z AUTO 24013KT 9999 OVC012/// ///TCU 14/13 Q1012 TEMPO 3000 SHRA BKN008
  • 111300Z AUTO 24013KT 9999 OVC009/// ///TCU 14/13 Q1012 TEMPO 3000 SHRA
  • 111230Z AUTO 25007KT 9999 BKN006/// OVC010/// //////TCU 14/13 Q1013 TEMPO 3000 SHRA
  • 111200Z AUTO 25006KT 3600 -RA BR BKN004 BKN012 OVC019 13/13 Q1013 TEMPO SHRA BKN012TCU
  • 111130Z AUTO 25005KT 3000 -RA BR OVC013 13/13 Q1012 TEMPO SHRA BKN012TCU

TAF AMD TAF LFLX
Valido dal 11 a 14 ore il 12 a 18 ore UTC


111439Z 1114/1218 25010KT 9999 BKN020
TEMPO 1114/1118 3000 SHRA BKN012TCU
PROB30
TEMPO 1114/1116 BKN008
BECMG 1118/1122 23015G25KT 4000 RA BKN014
PROB40
TEMPO 1120/1123 BKN009
BECMG 1200/1202 9999 NSW BKN020
TEMPO 1204/1210 4000 RA BKN014
TEMPO 1210/1218 3000 SHRA BKN014TCU



MetMap, La meteo Aeronautica in un colpo d'occhio ! - Copyright ORBIFLY Dicembre 2007 - Disclaimer

ORBIFLY MET'MAP TEAM :

Programmazione e sviluppo : Alexandra Zaïnal
Concezione : Baudouin d'Aumeries
Supporto tecnico e logistico : Manuel Goepfert
Aiuto : Marc-Olivier Méhu
Aiuto per la traduzione : Arnaldo La Scala




FONTI E CREDITI :

   NOAA